createdAt,value
2022-10-09T00:05:50.557Z,75183.88
2022-10-09T00:15:55.070Z,75204.13
2022-10-09T00:26:01.084Z,75220.31
2022-10-09T00:36:08.598Z,75208.16
2022-10-09T00:46:21.519Z,75208.16
2022-10-09T00:56:25.181Z,75238.53
2022-10-09T01:06:43.288Z,75276.97
2022-10-09T01:16:53.604Z,75297.22
2022-10-09T01:27:05.640Z,75309.34
2022-10-09T01:37:13.490Z,75311.38
2022-10-09T01:47:23.906Z,75337.69
2022-10-09T01:57:39.907Z,75366.00
2022-10-09T02:07:42.135Z,75398.38
2022-10-09T02:17:46.954Z,75438.88
2022-10-09T02:27:48.908Z,75465.16
2022-10-09T02:37:51.278Z,75511.72
2022-10-09T02:47:53.659Z,75544.09
2022-10-09T02:57:58.227Z,75568.38
2022-10-09T03:08:02.833Z,75596.72
2022-10-09T03:18:04.998Z,75618.97
2022-10-09T03:28:10.392Z,75639.22
2022-10-09T03:38:17.086Z,75649.31
2022-10-09T03:48:21.582Z,75669.56
2022-10-09T03:58:28.388Z,75691.81
2022-10-09T04:08:33.115Z,75693.84
2022-10-09T04:18:37.303Z,75697.91
2022-10-09T04:28:39.783Z,75697.91
2022-10-09T04:38:41.958Z,75685.75
2022-10-09T04:48:46.840Z,75693.84
2022-10-09T04:58:51.447Z,75699.91
2022-10-09T05:08:56.562Z,75701.94
2022-10-09T05:19:00.132Z,75730.28
2022-10-09T05:29:09.549Z,75726.22
2022-10-09T05:39:16.246Z,75730.28
2022-10-09T05:49:27.580Z,75742.41
2022-10-09T05:59:29.595Z,75730.28
2022-10-09T06:09:38.838Z,75730.28
2022-10-09T06:19:43.831Z,75738.38
2022-10-09T06:29:48.566Z,75734.31
2022-10-09T06:39:50.657Z,75710.03
2022-10-09T06:49:57.449Z,75732.31
2022-10-09T06:59:59.802Z,75736.34
2022-10-09T07:10:01.855Z,75744.44
2022-10-09T07:20:04.077Z,75758.63
2022-10-09T07:30:08.522Z,75732.31
2022-10-09T07:40:16.996Z,75726.22
2022-10-09T07:50:21.242Z,75726.22
2022-10-09T08:00:25.776Z,75720.16
2022-10-09T08:10:32.468Z,75718.13
2022-10-09T08:20:36.533Z,75710.03
2022-10-09T08:30:40.229Z,75716.13
2022-10-09T08:40:53.833Z,75708.03
2022-10-09T08:51:00.356Z,75695.88
2022-10-09T09:01:22.196Z,75703.97
2022-10-09T09:11:42.596Z,75701.94
2022-10-09T09:21:52.399Z,75687.78
2022-10-09T09:32:02.375Z,75645.28
2022-10-09T09:42:07.353Z,75653.38
2022-10-09T09:52:12.127Z,75633.13
2022-10-09T10:02:19.504Z,75637.19
2022-10-09T10:12:25.008Z,75612.91
2022-10-09T10:22:28.307Z,75633.13
2022-10-09T10:32:34.601Z,75618.97
2022-10-09T10:43:08.166Z,75645.28
2022-10-09T10:53:26.636Z,75633.13
2022-10-09T11:03:42.900Z,75653.38
2022-10-09T11:13:59.442Z,75665.53
2022-10-09T11:24:57.027Z,75653.38
2022-10-09T11:35:04.205Z,75641.22
2022-10-09T11:45:16.539Z,75633.13
2022-10-09T11:55:22.861Z,75631.13
2022-10-09T12:05:29.913Z,75602.78
2022-10-09T12:15:53.844Z,75582.53
2022-10-09T12:25:56.551Z,75586.59
2022-10-09T12:36:30.352Z,75588.63
2022-10-09T12:46:37.233Z,75564.34
2022-10-09T12:56:42.476Z,75529.94
2022-10-09T13:06:50.074Z,75554.22
2022-10-09T13:16:52.204Z,75576.47
2022-10-09T13:26:56.586Z,75584.56
2022-10-09T13:37:03.207Z,75556.25
2022-10-09T13:47:09.978Z,75523.84
2022-10-09T13:57:12.372Z,75546.13
2022-10-09T14:07:16.874Z,75578.50
2022-10-09T14:17:19.151Z,75586.59
2022-10-09T14:27:21.355Z,75600.75
2022-10-09T14:37:41.011Z,75623.03
2022-10-09T14:47:44.044Z,75629.09
2022-10-09T14:57:48.685Z,75645.28
2022-10-09T15:07:50.937Z,75673.63
2022-10-09T15:17:55.432Z,75699.91
2022-10-09T15:28:03.781Z,75718.13
2022-10-09T15:38:09.222Z,75734.31
2022-10-09T15:48:18.955Z,75768.72
2022-10-09T15:58:25.688Z,75791.00
2022-10-09T16:08:30.101Z,75817.31
2022-10-09T16:18:34.715Z,75839.56
2022-10-09T16:28:44.446Z,75867.91
2022-10-09T16:38:49.073Z,75884.09
2022-10-09T16:48:59.330Z,75902.31
2022-10-09T16:59:06.212Z,75912.44
2022-10-09T17:09:14.521Z,75914.44
2022-10-09T17:19:20.071Z,75928.63
2022-10-09T17:29:28.482Z,75952.91
2022-10-09T17:39:35.361Z,75965.03
2022-10-09T17:49:39.667Z,75969.09
2022-10-09T17:59:42.061Z,75969.09
2022-10-09T18:09:50.597Z,75981.25
2022-10-09T18:19:56.234Z,75985.28
2022-10-09T18:30:01.228Z,76001.47
2022-10-09T18:40:06.088Z,75997.44
2022-10-09T18:50:10.457Z,76011.59
2022-10-09T19:00:17.878Z,76027.78
2022-10-09T19:10:22.634Z,76037.91
2022-10-09T19:20:27.947Z,76056.13
2022-10-09T19:30:30.045Z,76062.19
2022-10-09T19:40:34.778Z,76072.31
2022-10-09T19:50:46.475Z,76092.56
2022-10-09T20:00:49.156Z,76074.34
2022-10-09T20:10:51.134Z,76082.44
2022-10-09T20:20:53.196Z,76104.69
2022-10-09T20:31:00.478Z,76104.69
2022-10-09T20:41:08.928Z,76110.78
2022-10-09T20:51:19.345Z,76110.78
2022-10-09T21:01:28.439Z,76131.00
2022-10-09T21:11:35.454Z,76135.06
2022-10-09T21:21:39.307Z,76139.09
2022-10-09T21:31:45.555Z,76141.13
2022-10-09T21:41:53.968Z,76163.41
2022-10-09T21:51:58.287Z,76175.53
2022-10-09T22:02:03.073Z,76187.69
2022-10-09T22:12:05.168Z,76183.63
2022-10-09T22:22:10.719Z,76191.72
2022-10-09T22:32:17.946Z,76191.72
2022-10-09T22:42:19.937Z,76216.03
2022-10-09T22:52:21.923Z,76230.19
2022-10-09T23:02:23.996Z,76244.34
2022-10-09T23:12:28.163Z,76256.50
2022-10-09T23:22:35.343Z,76254.47
2022-10-09T23:32:37.374Z,76260.56
2022-10-09T23:42:41.865Z,76272.69
2022-10-09T23:52:46.935Z,76268.66
